Monday, July 23, 2018, 11:31 AM GMT
Back to Local

CYZX, Greenwood, N. S.

Location: , , Canada Lat: 44.983
Local Time: 11:31 AM GMT (11:31 GMT) Lon: -64.917
Time Zone: GMT Elev: 91 ft

Show me the last for .
Show Coded

Time T Td Feel RH Dir Speed Gust Alt SLP Vis Weather Sky Remarks
2018-07-23 11:00 73 72 78 94 260° 3 - 30.36 30.36 15 FEW022 BKN180 None
2018-07-23 10:00 70 70 - 100 - Calm - 30.36 30.36 15 FEW070 SCT250 None
2018-07-23 09:00 72 70 76 94 - Calm - 30.35 30.35 15 FEW070 SCT250 None
2018-07-23 08:00 73 72 78 94 230° 5 - 30.34 30.34 15 FEW018 SCT030 None
2018-07-23 07:00 72 70 76 94 220° 6 - 30.34 30.34 15 FEW018 SCT030 None
2018-07-23 06:00 73 72 78 94 200° 6 - 30.34 30.34 15 FEW018 SCT028 None
2018-07-23 05:00 73 72 78 94 200° 7 - 30.34 30.34 15 BKN027 None
2018-07-23 04:00 73 72 78 94 210° 5 - 30.34 30.34 15 SCT018 BKN028 None
2018-07-23 03:00 75 73 80 94 190° 5 - 30.34 30.34 15 BKN026 None
2018-07-23 02:00 75 73 80 94 - Calm - 30.34 30.34 15 FEW011 SCT030 None
2018-07-23 01:00 75 72 79 88 - Calm - 30.34 30.34 15 FEW009 SCT030 None
2018-07-23 00:00 75 75 81 100 230° 2 - 30.32 30.32 8 -SHRA SCT009 BKN026 None
2018-07-22 23:00 75 75 81 100 330° 6 - 30.31 30.31 3 -SHRA BR FEW006 BKN026 Lighting in the vicinity
2018-07-22 22:49 75 75 81 100 350° 7 - 30.31 30.31 0 +SHRA BR SCT006 OVC020 None
2018-07-22 22:30 75 75 81 100 330° 5 - 30.31 30.31 2 SHRA BR SCT006 BKN030 None
2018-07-22 22:00 77 73 82 88 - Calm - 30.29 30.29 12 -SHRA BKN030 OVC050 None
2018-07-22 21:00 79 73 84 83 290° 6 - 30.29 30.29 3 -SHRA BR FEW015 OVC030 None
2018-07-22 20:00 79 75 85 88 250° 13 - 30.28 30.28 6 -SHRA BR BKN035 None
2018-07-22 19:08 81 75 87 83 270° 9 - 30.26 30.27 12 -SHRA BKN040 None
2018-07-22 19:00 81 75 87 83 280° 12 - 30.27 30.27 15 BKN040 None
2018-07-22 18:42 79 77 86 94 260° 10 - 30.27 30.27 12 BKN030 BKN040 None
2018-07-22 18:00 79 75 85 88 270° 6 - 30.26 30.27 5 -SHRA BR BKN028 BKN040 None
2018-07-22 17:16 81 75 87 83 200° 8 - 30.26 30.26 12 -SHRA BKN028 BKN039 None
2018-07-22 17:00 82 73 89 74 210° 12 17 30.26 30.26 15 BKN024 BKN035 None
2018-07-22 16:00 79 72 83 78 210° 12 17 30.27 30.27 15 BKN022 OVC050 None
2018-07-22 15:18 79 72 83 78 200° 7 - 30.27 30.27 15 BKN020 BKN050 None
2018-07-22 15:00 77 73 82 88 210° 9 - 30.28 30.28 15 BKN014 OVC018 None
2018-07-22 14:00 72 70 76 94 110° 2 - 30.28 30.28 15 BKN012 BKN060 None
2018-07-22 13:33 68 68 - 100 30° 6 - 30.28 30.28 12 OVC012 None
2018-07-22 13:22 68 66 - 93 50° 6 - 30.28 30.28 3 -SHRA BR OVC012 None
2018-07-22 13:00 68 66 - 93 70° 5 - 30.28 30.28 1 -SHRA BR BKN012 OVC019 None
2018-07-22 12:19 68 66 - 93 60° 5 - 30.26 30.27 3 -SHRA BR BKN014 OVC020 None
2018-07-22 12:00 68 64 - 88 70° 5 - 30.26 30.26 15 BKN014 OVC020 None
2018-07-22 11:36 66 64 - 93 80° 3 - 30.26 30.26 15 OVC014 None

Support USWX by starting your Amazon purchase here.